Skip Navigation LinksHome page > Weather > Current weather Skip Navigation Links

Current Weather

Mc Carran Intl, Las Vegas, Nev.

For information only: do not use for flight planning or navigation.
Latest weather
Observation time Friday, May 14, 2021 4:56 AM PDT
Local time Friday, May 14, 2021 6:04 AM PDT
Flight conditions Visual Meteorological Conditions
Winds
Wind speed calm
Visibility 10 mi.
Sky condition
Ceiling unlimited
Sky clear
Temperature 75°F
Dewpoint 28°F
Altimeter 29.87 in.Hg
Pressure change last 3 hours-0.01 in.Hg
Pressure rising more quickly
Derived measurements
Relative humidity 18%
Density altitude 3358 ft.
Sea-level pressure 29.78 in.Hg
Climate data
Temperature minimum, last 6 hours 73°F
Temperature maximum, last 6 hours 85°F
Remarks
System requires maintenance.
Automated weather observing station with precipitation discriminator.
METAR KLAS 141156Z 00000KT 10SM CLR 24/M02 A2987 RMK AO2 SLP086 T02391022 10294 20228 53002 $

Settings

Location code

InnerDrive.Weather 4.0.6770.0 Release CLR 4.0.30319.42000
Copyright ©2018 Inner Drive Technology. All rights reserved. Portions Copyright ©1986-2018 David Braverman.

Find weather

Site navigation


Skip Navigation Links

Place info

Page info

PayPal - The safer, easier way to pay online!

Return home.

Copyright ©2021 Inner Drive Technology. Purveyors of fine, hand-crafted computer software. Page printed 2021-05-14T13:04:33 UTC.